Genesis Glory — WDG9354 — position and weather

sailwx.info

Track history (hours):
 
Tides and Currents Weather Stations Pressure Air Temp Water Temp Dewpoint Dewpoint Depression Visibility Wind Speed Wind Dir Waves Ship Positions

Genesis Glory

Owner: Genesis Marine, LLC, Houston, TX. More information available from US FCC via Universal Licensing System and Coast Guard Vessel Documentation Center.

Last reported at 2018-Jul-22 14:27 UTC. Time now 2018-Jul-23 07:29 UTC.
Position N 32°45' W 079°51'.

Length 36 m; draft 5 m.

Type: Towing. MMSI: 367586910.

Date/timePositionNaut miles runAvg speedWind from/ knotsBaromVisibWave heightAir tempDewpointWater temp
2018-Jul-22 14:27N 32°45' W 079°51'2 4.5
2018-Jul-22 14:00N 32°46' W 079°53'0 0.2
2018-Jul-22 13:30N 32°46' W 079°53'3 5.2
2018-Jul-22 13:00N 32°48' W 079°55'6 8.8
2018-Jul-22 12:22N 32°53' W 079°58'1 0.1
2018-Jul-21 14:45N 32°52' W 079°58'2 7.0
2018-Jul-21 14:26N 32°51' W 079°56'5 5.4
2018-Jul-21 13:27N 32°46' W 079°53'  
2018-Jul-18 13:36N 38°58' W 074°30'2 7.6
2018-Jul-18 13:20N 38°60' W 074°28'6 7.6
2018-Jul-18 12:30N 39°05' W 074°23'4 7.8
2018-Jul-18 12:00N 39°07' W 074°20'4 7.7
2018-Jul-18 11:30N 39°10' W 074°16'7 7.5
2018-Jul-18 10:30N 39°16' W 074°10'4 7.7
2018-Jul-18 10:00N 39°20' W 074°10'4 7.5
2018-Jul-18 09:30N 39°23' W 074°07'4 7.4
2018-Jul-18 09:00N 39°26' W 074°05'4 7.3
2018-Jul-18 08:30N 39°30' W 074°04'4 7.4
2018-Jul-18 08:00N 39°33' W 074°02'4 7.3
2018-Jul-18 07:30N 39°37' W 074°01'4 7.3
2018-Jul-18 07:00N 39°40' W 073°59'4 7.3
2018-Jul-18 06:30N 39°44' W 073°58'4 7.2
2018-Jul-18 06:00N 39°47' W 073°58'11 7.2
2018-Jul-18 04:28N 39°58' W 073°56'4 7.2
2018-Jul-18 03:55N 40°02' W 073°55'3 7.1
2018-Jul-18 03:26N 40°06' W 073°54'3 7.3
2018-Jul-18 03:00N 40°09' W 073°54'25 6.3
2018-Jul-17 23:06N 40°33' W 074°02'1 7.8
2018-Jul-17 23:00N 40°33' W 074°02'3 6.2
2018-Jul-17 22:30N 40°36' W 074°03'2 4.5
2018-Jul-17 22:00N 40°39' W 074°04'5 7.9
2018-Jul-17 21:26N 40°39' W 074°10'3 6.2
2018-Jul-17 21:00N 40°37' W 074°12'1 0.0
2018-Jul-15 18:20N 40°38' W 074°12'3 8.3
2018-Jul-15 17:55N 40°39' W 074°07'4 8.8
2018-Jul-15 17:30N 40°39' W 074°03'2 4.3
2018-Jul-15 17:00N 40°40' W 074°00'0 0.0
2018-Jul-15 16:30N 40°40' W 074°00'0 0.0
2018-Jul-15 16:00N 40°40' W 074°00'0 0.0
2018-Jul-15 15:29N 40°40' W 074°00'0 0.0
2018-Jul-15 15:00N 40°40' W 074°00'0 0.0
2018-Jul-15 14:30N 40°40' W 074°00'0 0.0
2018-Jul-15 13:58N 40°40' W 074°00'0 0.0
2018-Jul-15 13:30N 40°40' W 074°00'0 0.0
2018-Jul-15 12:59N 40°40' W 074°00'0 0.0
2018-Jul-15 12:30N 40°40' W 074°00'0 0.0
2018-Jul-15 12:00N 40°40' W 074°00'0 0.0
2018-Jul-15 11:30N 40°40' W 074°00'0 0.0
2018-Jul-15 11:00N 40°40' W 074°00'0 0.0
2018-Jul-15 10:30N 40°40' W 074°00'0 0.0
2018-Jul-15 10:00N 40°40' W 074°00'0 0.0
2018-Jul-15 09:30N 40°40' W 074°00'0 0.0
2018-Jul-15 09:00N 40°40' W 074°00'0 0.0
2018-Jul-15 08:30N 40°40' W 074°00'0 0.0
2018-Jul-15 08:00N 40°40' W 074°00'0 0.0
2018-Jul-15 07:30N 40°40' W 074°00'0 0.0
2018-Jul-15 07:00N 40°40' W 074°00'0 0.0
2018-Jul-15 06:30N 40°40' W 074°00'0 0.0
2018-Jul-15 06:00N 40°40' W 074°00'0 0.0
2018-Jul-15 05:30N 40°40' W 074°00'0 0.0
2018-Jul-15 05:00N 40°40' W 074°00'0 0.0
2018-Jul-15 04:30N 40°40' W 074°00'0 0.0
2018-Jul-15 04:00N 40°40' W 074°00'0 0.0
2018-Jul-15 03:30N 40°40' W 074°00'0 0.0
2018-Jul-15 03:00N 40°40' W 074°00'0 0.0
2018-Jul-15 02:30N 40°40' W 074°00'0 0.0
2018-Jul-15 02:00N 40°40' W 074°00'0 0.0
2018-Jul-15 01:30N 40°40' W 074°00'0 0.1
2018-Jul-15 01:00N 40°40' W 074°00'4 8.8
2018-Jul-15 00:30N 40°39' W 074°06'5 3.0
2018-Jul-14 23:00N 40°38' W 074°12'0 0.2
2018-Jul-14 21:12N 40°38' W 074°12'1 6.6
2018-Jul-14 21:00N 40°39' W 074°11'3 7.2
2018-Jul-14 20:30N 40°39' W 074°06'3 5.4
2018-Jul-14 20:00N 40°40' W 074°03'0 0.1
2018-Jul-14 19:30N 40°40' W 074°03'0 0.0
2018-Jul-14 19:00N 40°40' W 074°03'0 0.0
2018-Jul-14 18:30N 40°40' W 074°03'0 0.0
2018-Jul-14 18:00N 40°40' W 074°03'0 0.1
2018-Jul-14 17:30N 40°40' W 074°03'0 0.2
2018-Jul-14 17:00N 40°40' W 074°03'0 0.2
2018-Jul-14 16:30N 40°40' W 074°02'0 0.1
2018-Jul-14 16:00N 40°40' W 074°02'0 0.0
2018-Jul-14 15:30N 40°40' W 074°02'0 0.0
2018-Jul-14 15:00N 40°40' W 074°02'0 0.0
2018-Jul-14 14:00N 40°40' W 074°02'0 0.0
2018-Jul-14 13:30N 40°40' W 074°02'0 0.0
2018-Jul-14 13:00N 40°40' W 074°02'0 0.0
2018-Jul-14 12:30N 40°40' W 074°02'0 0.0
2018-Jul-14 12:00N 40°40' W 074°02'0 0.1
2018-Jul-14 11:30N 40°40' W 074°02'0 0.2
2018-Jul-14 11:00N 40°40' W 074°02'0 0.3
2018-Jul-14 10:30N 40°40' W 074°03'0 0.0
2018-Jul-14 10:00N 40°40' W 074°03'0 0.0
2018-Jul-14 09:30N 40°40' W 074°03'0 0.0
2018-Jul-14 09:00N 40°40' W 074°03'0 0.0
2018-Jul-14 08:30N 40°40' W 074°03'0 0.0
2018-Jul-14 08:00N 40°40' W 074°03'0 0.0
2018-Jul-14 07:30N 40°40' W 074°03'0 0.0
2018-Jul-14 06:57N 40°40' W 074°03'0 0.0
2018-Jul-14 06:30N 40°40' W 074°03'0 0.0
2018-Jul-14 06:00N 40°40' W 074°03'0 0.0
2018-Jul-14 05:30N 40°40' W 074°03'0 0.1
2018-Jul-14 05:00N 40°40' W 074°03'0 0.0
2018-Jul-14 04:30N 40°40' W 074°03'0 0.3
2018-Jul-14 04:00N 40°40' W 074°03'0 0.3
2018-Jul-14 03:30N 40°40' W 074°02'0 0.0
2018-Jul-14 03:00N 40°40' W 074°02'0 0.1
2018-Jul-14 02:30N 40°40' W 074°03'0 0.0
2018-Jul-14 02:00N 40°40' W 074°02'0 0.0
2018-Jul-14 01:30N 40°40' W 074°02'0 0.0
2018-Jul-14 01:00N 40°40' W 074°02'0 0.0
2018-Jul-14 00:30N 40°40' W 074°02'0 0.0
2018-Jul-14 00:00N 40°40' W 074°02'0 0.1
2018-Jul-13 23:30N 40°40' W 074°02'0 0.0
2018-Jul-13 23:00N 40°40' W 074°02'0 0.1
2018-Jul-13 22:30N 40°40' W 074°03'0 0.2
2018-Jul-13 22:00N 40°40' W 074°03'0 0.3
2018-Jul-13 21:30N 40°40' W 074°03'0 0.1
2018-Jul-13 21:00N 40°40' W 074°03'0 0.0
2018-Jul-13 20:30N 40°40' W 074°03'0 0.0
2018-Jul-13 20:00N 40°40' W 074°03'0 0.0
2018-Jul-13 19:30N 40°40' W 074°03'0 0.0
2018-Jul-13 18:57N 40°40' W 074°03'0 0.0
2018-Jul-13 18:30N 40°40' W 074°03'0 0.0
2018-Jul-13 18:00N 40°40' W 074°03'0 0.1
2018-Jul-13 17:30N 40°40' W 074°03'0 0.1
2018-Jul-13 17:00N 40°40' W 074°03'0 0.0
2018-Jul-13 16:30N 40°40' W 074°03'0 0.3
2018-Jul-13 16:00N 40°40' W 074°03'0 0.2
2018-Jul-13 15:30N 40°40' W 074°03'0 0.1
2018-Jul-13 15:00N 40°40' W 074°03'0 0.0
2018-Jul-13 14:00N 40°40' W 074°02'0 0.0
2018-Jul-13 13:30N 40°40' W 074°02'0 0.0
2018-Jul-13 13:00N 40°40' W 074°02'0 0.0
2018-Jul-13 12:30N 40°40' W 074°02'0 0.0
2018-Jul-13 12:00N 40°40' W 074°02'0 0.0
2018-Jul-13 11:30N 40°40' W 074°02'0 0.0
2018-Jul-13 11:00N 40°40' W 074°02'0 0.2
2018-Jul-13 10:30N 40°40' W 074°03'0 0.2
2018-Jul-13 10:00N 40°40' W 074°03'0 0.3
2018-Jul-13 09:30N 40°40' W 074°03'0 0.1
2018-Jul-13 09:00N 40°40' W 074°03'0 0.1
2018-Jul-13 08:30N 40°40' W 074°03'0 0.0
2018-Jul-13 08:00N 40°40' W 074°03'0 0.0
2018-Jul-13 07:30N 40°40' W 074°03'0 0.0
2018-Jul-13 07:00N 40°40' W 074°03'0 0.0
2018-Jul-13 06:30N 40°40' W 074°03'0 0.0
2018-Jul-13 06:00N 40°40' W 074°03'0 0.0
2018-Jul-13 05:30N 40°40' W 074°03'0 0.0
2018-Jul-13 05:00N 40°40' W 074°03'0 0.1
2018-Jul-13 04:30N 40°40' W 074°03'0 0.0
2018-Jul-13 04:00N 40°40' W 074°03'0 0.0
2018-Jul-13 03:30N 40°40' W 074°03'0 0.3
2018-Jul-13 03:00N 40°40' W 074°03'0 0.2
2018-Jul-13 02:30N 40°40' W 074°03'0 0.0
2018-Jul-13 02:00N 40°40' W 074°03'0 0.1
2018-Jul-13 01:30N 40°40' W 074°02'0 0.0
2018-Jul-13 01:00N 40°40' W 074°02'0 0.1
2018-Jul-13 00:30N 40°40' W 074°02'0 0.1
2018-Jul-13 00:00N 40°40' W 074°02'0 0.0
2018-Jul-12 23:30N 40°40' W 074°02'0 0.0
2018-Jul-12 23:00N 40°40' W 074°02'0 0.0
2018-Jul-12 22:30N 40°40' W 074°02'0 0.1
2018-Jul-12 22:00N 40°40' W 074°02'0 0.0
2018-Jul-12 21:30N 40°40' W 074°03'0 0.2
2018-Jul-12 21:00N 40°40' W 074°03'0 0.2
2018-Jul-12 20:30N 40°40' W 074°03'0 0.1
2018-Jul-12 20:00N 40°40' W 074°03'0 0.0
2018-Jul-12 19:30N 40°40' W 074°03'0 0.0
2018-Jul-12 19:00N 40°40' W 074°03'0 0.0
2018-Jul-12 18:30N 40°40' W 074°03'0 0.0
2018-Jul-12 18:00N 40°40' W 074°03'0 0.0
2018-Jul-12 17:30N 40°40' W 074°03'0 0.0
2018-Jul-12 17:00N 40°40' W 074°03'0 0.0
2018-Jul-12 16:30N 40°40' W 074°03'0 0.0
2018-Jul-12 16:00N 40°40' W 074°03'0 0.0
2018-Jul-12 15:30N 40°40' W 074°03'0 0.1
2018-Jul-12 15:00N 40°40' W 074°03'0 0.3
2018-Jul-12 14:30N 40°40' W 074°02'  
Track history (hours):
 
Tides and Currents Weather Stations Pressure Air Temp Water Temp Dewpoint Dewpoint Depression Visibility Wind Speed Wind Dir Waves Ship Positions

Genesis Glory

Owner: Genesis Marine, LLC, Houston, TX. More information available from US FCC via Universal Licensing System and Coast Guard Vessel Documentation Center.

Last reported at 2018-Jul-22 14:27 UTC. Time now 2018-Jul-23 07:29 UTC.
Position N 32°45' W 079°51'.

Length 36 m; draft 5 m.

Type: Towing. MMSI: 367586910.

Date/timePositionNaut miles runAvg speedWind from/ knotsBaromVisibWave heightAir tempDewpointWater temp
2018-Jul-22 14:27N 32°45' W 079°51'2 4.5
2018-Jul-22 14:00N 32°46' W 079°53'0 0.2
2018-Jul-22 13:30N 32°46' W 079°53'3 5.2
2018-Jul-22 13:00N 32°48' W 079°55'6 8.8
2018-Jul-22 12:22N 32°53' W 079°58'1 0.1
2018-Jul-21 14:45N 32°52' W 079°58'2 7.0
2018-Jul-21 14:26N 32°51' W 079°56'5 5.4
2018-Jul-21 13:27N 32°46' W 079°53'  
2018-Jul-18 13:36N 38°58' W 074°30'2 7.6
2018-Jul-18 13:20N 38°60' W 074°28'6 7.6
2018-Jul-18 12:30N 39°05' W 074°23'4 7.8
2018-Jul-18 12:00N 39°07' W 074°20'4 7.7
2018-Jul-18 11:30N 39°10' W 074°16'7 7.5
2018-Jul-18 10:30N 39°16' W 074°10'4 7.7
2018-Jul-18 10:00N 39°20' W 074°10'4 7.5
2018-Jul-18 09:30N 39°23' W 074°07'4 7.4
2018-Jul-18 09:00N 39°26' W 074°05'4 7.3
2018-Jul-18 08:30N 39°30' W 074°04'4 7.4
2018-Jul-18 08:00N 39°33' W 074°02'4 7.3
2018-Jul-18 07:30N 39°37' W 074°01'4 7.3
2018-Jul-18 07:00N 39°40' W 073°59'4 7.3
2018-Jul-18 06:30N 39°44' W 073°58'4 7.2
2018-Jul-18 06:00N 39°47' W 073°58'11 7.2
2018-Jul-18 04:28N 39°58' W 073°56'4 7.2
2018-Jul-18 03:55N 40°02' W 073°55'3 7.1
2018-Jul-18 03:26N 40°06' W 073°54'3 7.3
2018-Jul-18 03:00N 40°09' W 073°54'25 6.3
2018-Jul-17 23:06N 40°33' W 074°02'1 7.8
2018-Jul-17 23:00N 40°33' W 074°02'3 6.2
2018-Jul-17 22:30N 40°36' W 074°03'2 4.5
2018-Jul-17 22:00N 40°39' W 074°04'5 7.9
2018-Jul-17 21:26N 40°39' W 074°10'3 6.2
2018-Jul-17 21:00N 40°37' W 074°12'1 0.0
2018-Jul-15 18:20N 40°38' W 074°12'3 8.3
2018-Jul-15 17:55N 40°39' W 074°07'4 8.8
2018-Jul-15 17:30N 40°39' W 074°03'2 4.3
2018-Jul-15 17:00N 40°40' W 074°00'0 0.0
2018-Jul-15 16:30N 40°40' W 074°00'0 0.0
2018-Jul-15 16:00N 40°40' W 074°00'0 0.0
2018-Jul-15 15:29N 40°40' W 074°00'0 0.0
2018-Jul-15 15:00N 40°40' W 074°00'0 0.0
2018-Jul-15 14:30N 40°40' W 074°00'0 0.0
2018-Jul-15 13:58N 40°40' W 074°00'0 0.0
2018-Jul-15 13:30N 40°40' W 074°00'0 0.0
2018-Jul-15 12:59N 40°40' W 074°00'0 0.0
2018-Jul-15 12:30N 40°40' W 074°00'0 0.0
2018-Jul-15 12:00N 40°40' W 074°00'0 0.0
2018-Jul-15 11:30N 40°40' W 074°00'0 0.0
2018-Jul-15 11:00N 40°40' W 074°00'0 0.0
2018-Jul-15 10:30N 40°40' W 074°00'0 0.0
2018-Jul-15 10:00N 40°40' W 074°00'0 0.0
2018-Jul-15 09:30N 40°40' W 074°00'0 0.0
2018-Jul-15 09:00N 40°40' W 074°00'0 0.0
2018-Jul-15 08:30N 40°40' W 074°00'0 0.0
2018-Jul-15 08:00N 40°40' W 074°00'0 0.0
2018-Jul-15 07:30N 40°40' W 074°00'0 0.0
2018-Jul-15 07:00N 40°40' W 074°00'0 0.0
2018-Jul-15 06:30N 40°40' W 074°00'0 0.0
2018-Jul-15 06:00N 40°40' W 074°00'0 0.0
2018-Jul-15 05:30N 40°40' W 074°00'0 0.0
2018-Jul-15 05:00N 40°40' W 074°00'0 0.0
2018-Jul-15 04:30N 40°40' W 074°00'0 0.0
2018-Jul-15 04:00N 40°40' W 074°00'0 0.0
2018-Jul-15 03:30N 40°40' W 074°00'0 0.0
2018-Jul-15 03:00N 40°40' W 074°00'0 0.0
2018-Jul-15 02:30N 40°40' W 074°00'0 0.0
2018-Jul-15 02:00N 40°40' W 074°00'0 0.0
2018-Jul-15 01:30N 40°40' W 074°00'0 0.1
2018-Jul-15 01:00N 40°40' W 074°00'4 8.8
2018-Jul-15 00:30N 40°39' W 074°06'5 3.0
2018-Jul-14 23:00N 40°38' W 074°12'0 0.2
2018-Jul-14 21:12N 40°38' W 074°12'1 6.6
2018-Jul-14 21:00N 40°39' W 074°11'3 7.2
2018-Jul-14 20:30N 40°39' W 074°06'3 5.4
2018-Jul-14 20:00N 40°40' W 074°03'0 0.1
2018-Jul-14 19:30N 40°40' W 074°03'0 0.0
2018-Jul-14 19:00N 40°40' W 074°03'0 0.0
2018-Jul-14 18:30N 40°40' W 074°03'0 0.0
2018-Jul-14 18:00N 40°40' W 074°03'0 0.1
2018-Jul-14 17:30N 40°40' W 074°03'0 0.2
2018-Jul-14 17:00N 40°40' W 074°03'0 0.2
2018-Jul-14 16:30N 40°40' W 074°02'0 0.1
2018-Jul-14 16:00N 40°40' W 074°02'0 0.0
2018-Jul-14 15:30N 40°40' W 074°02'0 0.0
2018-Jul-14 15:00N 40°40' W 074°02'0 0.0
2018-Jul-14 14:00N 40°40' W 074°02'0 0.0
2018-Jul-14 13:30N 40°40' W 074°02'0 0.0
2018-Jul-14 13:00N 40°40' W 074°02'0 0.0
2018-Jul-14 12:30N 40°40' W 074°02'0 0.0
2018-Jul-14 12:00N 40°40' W 074°02'0 0.1
2018-Jul-14 11:30N 40°40' W 074°02'0 0.2
2018-Jul-14 11:00N 40°40' W 074°02'0 0.3
2018-Jul-14 10:30N 40°40' W 074°03'0 0.0
2018-Jul-14 10:00N 40°40' W 074°03'0 0.0
2018-Jul-14 09:30N 40°40' W 074°03'0 0.0
2018-Jul-14 09:00N 40°40' W 074°03'0 0.0
2018-Jul-14 08:30N 40°40' W 074°03'0 0.0
2018-Jul-14 08:00N 40°40' W 074°03'0 0.0
2018-Jul-14 07:30N 40°40' W 074°03'0 0.0
2018-Jul-14 06:57N 40°40' W 074°03'0 0.0
2018-Jul-14 06:30N 40°40' W 074°03'0 0.0
2018-Jul-14 06:00N 40°40' W 074°03'0 0.0
2018-Jul-14 05:30N 40°40' W 074°03'0 0.1
2018-Jul-14 05:00N 40°40' W 074°03'0 0.0
2018-Jul-14 04:30N 40°40' W 074°03'0 0.3
2018-Jul-14 04:00N 40°40' W 074°03'0 0.3
2018-Jul-14 03:30N 40°40' W 074°02'0 0.0
2018-Jul-14 03:00N 40°40' W 074°02'0 0.1
2018-Jul-14 02:30N 40°40' W 074°03'0 0.0
2018-Jul-14 02:00N 40°40' W 074°02'0 0.0
2018-Jul-14 01:30N 40°40' W 074°02'0 0.0
2018-Jul-14 01:00N 40°40' W 074°02'0 0.0
2018-Jul-14 00:30N 40°40' W 074°02'0 0.0
2018-Jul-14 00:00N 40°40' W 074°02'0 0.1
2018-Jul-13 23:30N 40°40' W 074°02'0 0.0
2018-Jul-13 23:00N 40°40' W 074°02'0 0.1
2018-Jul-13 22:30N 40°40' W 074°03'0 0.2
2018-Jul-13 22:00N 40°40' W 074°03'0 0.3
2018-Jul-13 21:30N 40°40' W 074°03'0 0.1
2018-Jul-13 21:00N 40°40' W 074°03'0 0.0
2018-Jul-13 20:30N 40°40' W 074°03'0 0.0
2018-Jul-13 20:00N 40°40' W 074°03'0 0.0
2018-Jul-13 19:30N 40°40' W 074°03'0 0.0
2018-Jul-13 18:57N 40°40' W 074°03'0 0.0
2018-Jul-13 18:30N 40°40' W 074°03'0 0.0
2018-Jul-13 18:00N 40°40' W 074°03'0 0.1
2018-Jul-13 17:30N 40°40' W 074°03'0 0.1
2018-Jul-13 17:00N 40°40' W 074°03'0 0.0
2018-Jul-13 16:30N 40°40' W 074°03'0 0.3
2018-Jul-13 16:00N 40°40' W 074°03'0 0.2
2018-Jul-13 15:30N 40°40' W 074°03'0 0.1
2018-Jul-13 15:00N 40°40' W 074°03'0 0.0
2018-Jul-13 14:00N 40°40' W 074°02'0 0.0
2018-Jul-13 13:30N 40°40' W 074°02'0 0.0
2018-Jul-13 13:00N 40°40' W 074°02'0 0.0
2018-Jul-13 12:30N 40°40' W 074°02'0 0.0
2018-Jul-13 12:00N 40°40' W 074°02'0 0.0
2018-Jul-13 11:30N 40°40' W 074°02'0 0.0
2018-Jul-13 11:00N 40°40' W 074°02'0 0.2
2018-Jul-13 10:30N 40°40' W 074°03'0 0.2
2018-Jul-13 10:00N 40°40' W 074°03'0 0.3
2018-Jul-13 09:30N 40°40' W 074°03'0 0.1
2018-Jul-13 09:00N 40°40' W 074°03'0 0.1
2018-Jul-13 08:30N 40°40' W 074°03'0 0.0
2018-Jul-13 08:00N 40°40' W 074°03'0 0.0
2018-Jul-13 07:30N 40°40' W 074°03'0 0.0
2018-Jul-13 07:00N 40°40' W 074°03'0 0.0
2018-Jul-13 06:30N 40°40' W 074°03'0 0.0
2018-Jul-13 06:00N 40°40' W 074°03'0 0.0
2018-Jul-13 05:30N 40°40' W 074°03'0 0.0
2018-Jul-13 05:00N 40°40' W 074°03'0 0.1
2018-Jul-13 04:30N 40°40' W 074°03'0 0.0
2018-Jul-13 04:00N 40°40' W 074°03'0 0.0
2018-Jul-13 03:30N 40°40' W 074°03'0 0.3
2018-Jul-13 03:00N 40°40' W 074°03'0 0.2
2018-Jul-13 02:30N 40°40' W 074°03'0 0.0
2018-Jul-13 02:00N 40°40' W 074°03'0 0.1
2018-Jul-13 01:30N 40°40' W 074°02'0 0.0
2018-Jul-13 01:00N 40°40' W 074°02'0 0.1
2018-Jul-13 00:30N 40°40' W 074°02'0 0.1
2018-Jul-13 00:00N 40°40' W 074°02'0 0.0
2018-Jul-12 23:30N 40°40' W 074°02'0 0.0
2018-Jul-12 23:00N 40°40' W 074°02'0 0.0
2018-Jul-12 22:30N 40°40' W 074°02'0 0.1
2018-Jul-12 22:00N 40°40' W 074°02'0 0.0
2018-Jul-12 21:30N 40°40' W 074°03'0 0.2
2018-Jul-12 21:00N 40°40' W 074°03'0 0.2
2018-Jul-12 20:30N 40°40' W 074°03'0 0.1
2018-Jul-12 20:00N 40°40' W 074°03'0 0.0
2018-Jul-12 19:30N 40°40' W 074°03'0 0.0
2018-Jul-12 19:00N 40°40' W 074°03'0 0.0
2018-Jul-12 18:30N 40°40' W 074°03'0 0.0
2018-Jul-12 18:00N 40°40' W 074°03'0 0.0
2018-Jul-12 17:30N 40°40' W 074°03'0 0.0
2018-Jul-12 17:00N 40°40' W 074°03'0 0.0
2018-Jul-12 16:30N 40°40' W 074°03'0 0.0
2018-Jul-12 16:00N 40°40' W 074°03'0 0.0
2018-Jul-12 15:30N 40°40' W 074°03'0 0.1
2018-Jul-12 15:00N 40°40' W 074°03'0 0.3
2018-Jul-12 14:30N 40°40' W 074°02'  

Dump ship's entire track history